Time;durP1;ratioP1;P1;durP2;ratioP2;P2;SDS_P1;SDS_P2;PMS_P1;PMS_P2;Temp;Humidity;BMP_temperature;BMP_pressure;BME280_temperature;BME280_humidity;BME280_pressure;Samples;Min_cycle;Max_cycle;Signal;HPM_P1;HPM_P2
2023/11/30 00:00:01;;;;;;;4.13;1.88;;;10.50;61.30;;;;;;7528259;23;20125;-69
2023/11/30 00:03:05;;;;;;;3.47;1.58;;;10.40;61.50;;;;;;7529488;23;20022;-69
2023/11/30 00:06:06;;;;;;;7.85;2.20;;;10.30;61.80;;;;;;7554220;23;20011;-68
2023/11/30 00:09:07;;;;;;;3.08;1.60;;;10.30;62.30;;;;;;7527890;23;20755;-68
2023/11/30 00:12:08;;;;;;;4.25;1.85;;;10.20;62.80;;;;;;7554162;23;20041;-69
2023/11/30 00:15:09;;;;;;;5.53;2.00;;;10.10;63.10;;;;;;7526556;23;20097;-67
2023/11/30 00:18:11;;;;;;;2.70;1.63;;;10.10;63.60;;;;;;7554151;23;20039;-69
2023/11/30 00:21:12;;;;;;;5.15;1.90;;;10.00;63.90;;;;;;7553835;23;20014;-69
2023/11/30 00:24:15;;;;;;;3.63;1.85;;;9.90;64.00;;;;;;7554005;23;20498;-69
2023/11/30 00:27:16;;;;;;;5.00;2.08;;;9.90;64.20;;;;;;7529115;23;20017;-69
2023/11/30 00:30:17;;;;;;;3.70;1.50;;;9.90;64.20;;;;;;7552473;23;20006;-69
2023/11/30 00:33:18;;;;;;;2.90;1.73;;;9.90;64.40;;;;;;7554326;23;20101;-69
2023/11/30 00:36:18;;;;;;;5.50;1.58;;;9.90;64.60;;;;;;7553797;23;20097;-69
2023/11/30 00:39:20;;;;;;;2.92;1.92;;;9.90;64.60;;;;;;7553970;23;20025;-69
2023/11/30 00:42:21;;;;;;;5.03;2.17;;;9.90;65.00;;;;;;7554137;23;20464;-68
2023/11/30 00:45:22;;;;;;;6.22;2.40;;;9.80;64.70;;;;;;7552217;23;20714;-69
2023/11/30 00:48:22;;;;;;;4.80;2.30;;;9.70;65.00;;;;;;7554126;23;20022;-69
2023/11/30 00:51:23;;;;;;;5.45;1.83;;;9.60;65.40;;;;;;7553851;23;20014;-69
2023/11/30 00:54:24;;;;;;;6.32;2.35;;;9.50;65.70;;;;;;7554012;23;20040;-67
2023/11/30 00:57:25;;;;;;;4.30;2.33;;;9.50;66.20;;;;;;7551464;23;20413;-68
2023/11/30 01:00:26;;;;;;;8.05;2.38;;;9.40;66.40;;;;;;7503484;23;20101;-71
2023/11/30 01:03:27;;;;;;;4.95;2.30;;;9.30;66.60;;;;;;7527759;23;20068;-68
2023/11/30 01:06:27;;;;;;;2.92;2.00;;;9.30;66.60;;;;;;7553418;23;20100;-68
2023/11/30 01:09:29;;;;;;;5.22;2.47;;;9.40;66.90;;;;;;7527979;23;20042;-69
2023/11/30 01:12:30;;;;;;;4.82;2.50;;;9.20;66.90;;;;;;7527417;23;20014;-69
2023/11/30 01:15:31;;;;;;;4.40;2.20;;;9.40;67.00;;;;;;7527606;23;20546;-69
2023/11/30 01:18:32;;;;;;;2.90;2.08;;;9.20;66.90;;;;;;7527416;23;20045;-69
2023/11/30 01:21:34;;;;;;;4.70;2.80;;;9.20;66.90;;;;;;7480043;23;20010;-71
2023/11/30 01:24:35;;;;;;;2.85;1.73;;;9.20;67.00;;;;;;7526558;23;20007;-69
2023/11/30 01:27:36;;;;;;;5.45;3.17;;;9.20;67.00;;;;;;7527359;23;20006;-69
2023/11/30 01:30:37;;;;;;;5.38;2.80;;;9.20;67.10;;;;;;7553400;23;20303;-68
2023/11/30 01:33:38;;;;;;;4.50;2.25;;;9.10;66.90;;;;;;7527183;23;20538;-69
2023/11/30 01:36:41;;;;;;;2.97;2.47;;;9.10;66.90;;;;;;7527210;23;20464;-69
2023/11/30 01:39:42;;;;;;;7.15;2.63;;;9.10;67.00;;;;;;7553122;23;20089;-69
2023/11/30 01:42:45;;;;;;;4.55;2.33;;;9.00;67.10;;;;;;7528176;23;20051;-68
2023/11/30 01:45:46;;;;;;;4.55;2.22;;;9.00;67.30;;;;;;7528485;23;20010;-69
2023/11/30 01:48:47;;;;;;;4.35;2.30;;;8.90;67.70;;;;;;7503304;23;20014;-71
2023/11/30 01:51:49;;;;;;;1.73;1.30;;;8.80;67.90;;;;;;7527324;23;20594;-69
2023/11/30 01:54:50;;;;;;;3.97;2.20;;;8.80;68.30;;;;;;7551461;23;20101;-70
2023/11/30 01:57:52;;;;;;;0.40;0.40;;;8.70;69.20;;;;;;7553323;23;20022;-69
2023/11/30 02:00:53;;;;;;;1.75;1.40;;;8.60;69.50;;;;;;7528619;23;20364;-69
2023/11/30 02:03:56;;;;;;;3.40;2.00;;;8.60;69.70;;;;;;7526453;23;20042;-69
2023/11/30 02:06:57;;;;;;;2.90;2.00;;;8.60;69.60;;;;;;7527730;23;20421;-69
2023/11/30 02:09:58;;;;;;;1.55;1.05;;;8.60;69.60;;;;;;7551483;23;20663;-70
2023/11/30 02:12:59;;;;;;;2.35;1.35;;;8.60;69.30;;;;;;7527910;23;20615;-70
2023/11/30 02:16:00;;;;;;;2.63;1.58;;;8.60;69.20;;;;;;7503400;23;20039;-69
2023/11/30 02:19:01;;;;;;;1.95;1.23;;;8.60;69.20;;;;;;7527701;23;20030;-68
2023/11/30 02:22:02;;;;;;;1.92;1.20;;;8.60;69.10;;;;;;7503175;23;20037;-69
2023/11/30 02:25:03;;;;;;;2.75;1.58;;;8.70;69.10;;;;;;7526971;23;20007;-69
2023/11/30 02:28:03;;;;;;;7.35;1.67;;;8.70;69.10;;;;;;7526916;23;20029;-68
2023/11/30 02:31:05;;;;;;;2.08;1.55;;;8.70;69.00;;;;;;7553099;23;20043;-70
2023/11/30 02:34:07;;;;;;;3.45;1.75;;;8.70;69.10;;;;;;7526982;23;20065;-70
2023/11/30 02:37:08;;;;;;;2.28;1.42;;;8.70;69.00;;;;;;7526913;23;20021;-70
2023/11/30 02:40:10;;;;;;;1.15;0.82;;;8.80;69.10;;;;;;7552759;23;20010;-69
2023/11/30 02:43:10;;;;;;;1.10;1.00;;;8.80;68.90;;;;;;7552536;23;20045;-69
2023/11/30 02:46:11;;;;;;;6.35;1.33;;;8.80;68.70;;;;;;7554791;23;20425;-69
2023/11/30 02:49:12;;;;;;;1.48;1.08;;;8.90;68.60;;;;;;7555533;23;20410;-68
2023/11/30 02:52:13;;;;;;;1.48;0.98;;;8.90;68.50;;;;;;7529494;23;20431;-68
2023/11/30 02:55:14;;;;;;;2.47;1.75;;;8.90;68.50;;;;;;7555157;23;20059;-69
2023/11/30 02:58:15;;;;;;;1.60;1.10;;;8.80;68.30;;;;;;7555604;23;20146;-71
2023/11/30 03:01:17;;;;;;;1.42;1.30;;;8.80;68.60;;;;;;7504752;23;20010;-70
2023/11/30 03:04:24;;;;;;;2.67;1.38;;;8.70;68.80;;;;;;7555636;23;20104;-68
2023/11/30 03:07:24;;;;;;;2.78;1.33;;;8.60;69.10;;;;;;7505575;23;20041;-69
2023/11/30 03:10:25;;;;;;;1.15;1.05;;;8.60;69.20;;;;;;7554776;23;20029;-69
2023/11/30 03:13:26;;;;;;;2.38;1.02;;;8.60;69.20;;;;;;7555248;23;20094;-70
2023/11/30 03:16:28;;;;;;;1.77;0.75;;;8.60;69.40;;;;;;7555586;23;20388;-69
2023/11/30 03:19:29;;;;;;;0.35;0.32;;;8.60;69.40;;;;;;7529767;23;20010;-69
2023/11/30 03:22:30;;;;;;;1.40;0.68;;;8.60;69.60;;;;;;7555118;23;20017;-67
2023/11/30 03:25:32;;;;;;;1.70;0.70;;;8.60;69.80;;;;;;7528652;23;20413;-69
2023/11/30 03:28:33;;;;;;;1.42;1.13;;;8.60;69.80;;;;;;7528848;23;20089;-69
2023/11/30 03:31:36;;;;;;;2.08;1.10;;;8.60;69.80;;;;;;7528594;23;20057;-69
2023/11/30 03:34:37;;;;;;;1.80;1.15;;;8.70;69.80;;;;;;7528695;23;20014;-69
2023/11/30 03:37:40;;;;;;;1.35;1.25;;;8.70;69.70;;;;;;7529306;23;20044;-68
2023/11/30 03:40:41;;;;;;;2.00;1.17;;;8.70;69.50;;;;;;7553051;23;20041;-69
2023/11/30 03:43:43;;;;;;;3.50;1.30;;;8.80;69.50;;;;;;7555230;23;20561;-70
2023/11/30 03:46:44;;;;;;;1.20;1.08;;;8.80;69.40;;;;;;7528707;23;20045;-69
2023/11/30 03:49:44;;;;;;;3.10;1.25;;;8.90;69.30;;;;;;7528270;23;20038;-70
2023/11/30 03:52:47;;;;;;;2.05;1.60;;;8.90;69.20;;;;;;7528440;23;20024;-68
2023/11/30 03:55:48;;;;;;;4.93;1.23;;;9.00;69.00;;;;;;7528863;23;20471;-68
2023/11/30 03:58:49;;;;;;;0.77;0.50;;;9.00;69.00;;;;;;7480346;23;20101;-68
2023/11/30 04:01:49;;;;;;;1.02;0.88;;;9.00;68.90;;;;;;7528116;23;20142;-68
2023/11/30 04:04:50;;;;;;;4.22;2.08;;;9.00;68.90;;;;;;7503723;23;20014;-68
2023/11/30 04:07:51;;;;;;;1.30;1.00;;;9.00;69.00;;;;;;7553773;23;20309;-69
2023/11/30 04:10:52;;;;;;;2.97;1.70;;;9.00;68.90;;;;;;7527670;23;20033;-68
2023/11/30 04:13:53;;;;;;;1.80;0.95;;;9.00;68.90;;;;;;7504501;23;20405;-69
2023/11/30 04:16:53;;;;;;;3.13;1.55;;;9.00;69.00;;;;;;7527917;23;20613;-68
2023/11/30 04:19:54;;;;;;;3.75;2.00;;;9.00;69.00;;;;;;7553706;23;20007;-69
2023/11/30 04:22:55;;;;;;;7.35;2.28;;;9.00;69.00;;;;;;7526761;23;20030;-68
2023/11/30 04:25:56;;;;;;;5.63;2.40;;;9.00;69.10;;;;;;7527282;23;20014;-69
2023/11/30 04:28:57;;;;;;;4.63;1.92;;;9.00;69.10;;;;;;7527176;23;20404;-69
2023/11/30 04:31:59;;;;;;;1.40;1.30;;;9.00;69.10;;;;;;7528588;23;20465;-69
2023/11/30 04:35:00;;;;;;;2.63;1.65;;;9.00;69.10;;;;;;7527671;23;20073;-68
2023/11/30 04:38:01;;;;;;;2.22;1.73;;;8.90;69.20;;;;;;7553572;23;20018;-68
2023/11/30 04:41:01;;;;;;;3.60;1.67;;;8.90;69.30;;;;;;7554057;23;20421;-68
2023/11/30 04:44:05;;;;;;;2.90;1.45;;;9.00;69.40;;;;;;7527673;23;20007;-69
2023/11/30 04:47:07;;;;;;;2.97;1.60;;;9.00;69.40;;;;;;7551518;23;20535;-69
2023/11/30 04:50:08;;;;;;;4.35;1.58;;;9.00;69.30;;;;;;7503735;23;20038;-68
2023/11/30 04:53:09;;;;;;;2.58;1.27;;;9.00;69.40;;;;;;7527294;23;20057;-69
2023/11/30 04:56:10;;;;;;;2.60;1.83;;;9.00;69.40;;;;;;7527597;23;20007;-69
2023/11/30 04:59:11;;;;;;;2.58;1.50;;;9.00;69.50;;;;;;7503549;23;20014;-70
2023/11/30 05:02:12;;;;;;;4.95;2.50;;;9.00;69.60;;;;;;7527470;23;20026;-69
2023/11/30 05:05:13;;;;;;;2.90;1.95;;;9.00;69.60;;;;;;7550901;23;20504;-68
2023/11/30 05:08:14;;;;;;;2.28;1.10;;;9.00;69.70;;;;;;7527104;23;20060;-70
2023/11/30 05:11:15;;;;;;;2.60;1.35;;;9.00;69.60;;;;;;7503666;23;20014;-68
2023/11/30 05:14:18;;;;;;;3.00;2.00;;;9.00;69.60;;;;;;7527142;23;20153;-69
2023/11/30 05:17:19;;;;;;;1.67;1.50;;;9.00;69.50;;;;;;7552837;23;20108;-68
2023/11/30 05:20:20;;;;;;;3.83;2.08;;;9.00;69.50;;;;;;7527523;23;20026;-69
2023/11/30 05:23:22;;;;;;;4.45;1.88;;;8.90;69.50;;;;;;7525412;23;20085;-69
2023/11/30 05:26:23;;;;;;;1.85;1.38;;;9.00;69.60;;;;;;7550994;23;20026;-68
2023/11/30 05:29:23;;;;;;;2.42;1.48;;;9.00;69.50;;;;;;7550913;23;20393;-68
2023/11/30 05:32:24;;;;;;;1.83;1.60;;;9.00;69.50;;;;;;7553910;23;20456;-69
2023/11/30 05:35:25;;;;;;;2.88;1.42;;;9.10;69.60;;;;;;7526382;23;20448;-70
2023/11/30 05:38:27;;;;;;;1.60;1.20;;;9.10;69.60;;;;;;7527101;23;20070;-69
2023/11/30 05:41:28;;;;;;;1.90;1.60;;;9.10;69.60;;;;;;7501684;23;20085;-69
2023/11/30 05:44:30;;;;;;;4.07;1.40;;;9.10;69.70;;;;;;7526856;23;20006;-71
2023/11/30 05:47:31;;;;;;;4.03;2.05;;;9.10;69.60;;;;;;7503235;23;20066;-69
2023/11/30 05:50:32;;;;;;;1.67;1.52;;;9.10;69.60;;;;;;7527262;23;20445;-68
2023/11/30 05:53:33;;;;;;;3.95;1.83;;;9.10;69.70;;;;;;7550338;23;20025;-69
2023/11/30 05:56:34;;;;;;;2.95;1.50;;;9.10;69.70;;;;;;7552881;23;20025;-70
2023/11/30 05:59:35;;;;;;;2.47;1.67;;;9.10;70.70;;;;;;7553762;23;20099;-69
2023/11/30 06:02:35;;;;;;;2.78;1.70;;;9.10;69.90;;;;;;7527661;23;20073;-70
2023/11/30 06:05:36;;;;;;;2.28;1.45;;;9.20;70.00;;;;;;7551545;23;20018;-69
2023/11/30 06:08:37;;;;;;;5.18;2.38;;;9.20;70.20;;;;;;7554491;23;20345;-70
2023/11/30 06:11:39;;;;;;;1.58;1.38;;;9.20;70.20;;;;;;7552649;23;20014;-69
2023/11/30 06:14:41;;;;;;;4.13;2.00;;;9.20;70.20;;;;;;7526971;23;20065;-69
2023/11/30 06:17:41;;;;;;;3.47;1.90;;;9.20;70.20;;;;;;7553091;23;20010;-69
2023/11/30 06:20:42;;;;;;;1.27;1.17;;;9.20;70.20;;;;;;7502981;23;20010;-70
2023/11/30 06:23:43;;;;;;;2.50;1.70;;;9.20;70.20;;;;;;7552640;23;20025;-69
2023/11/30 06:26:46;;;;;;;2.88;2.15;;;9.20;70.30;;;;;;7552180;23;19998;-70
2023/11/30 06:29:47;;;;;;;8.68;2.20;;;9.20;70.20;;;;;;7552450;23;20011;-71
2023/11/30 06:32:49;;;;;;;4.38;2.45;;;9.20;70.40;;;;;;7527429;23;20011;-69
2023/11/30 06:35:50;;;;;;;6.20;2.53;;;9.20;70.50;;;;;;7527022;23;20025;-70
2023/11/30 06:38:50;;;;;;;3.92;2.17;;;9.20;70.50;;;;;;7552067;23;20002;-70
2023/11/30 06:41:51;;;;;;;4.38;1.73;;;9.30;70.50;;;;;;7501812;23;20011;-70
2023/11/30 06:44:52;;;;;;;6.13;2.38;;;9.20;70.40;;;;;;7554099;23;20002;-70
2023/11/30 06:47:53;;;;;;;5.60;2.10;;;9.30;70.70;;;;;;7527541;23;20062;-69
2023/11/30 06:50:54;;;;;;;7.07;2.42;;;9.30;70.60;;;;;;7525775;23;20029;-68
2023/11/30 06:53:55;;;;;;;5.25;2.15;;;9.30;70.60;;;;;;7552318;23;20034;-70
2023/11/30 06:56:56;;;;;;;4.18;2.58;;;9.30;70.70;;;;;;7526758;23;20405;-70
2023/11/30 06:59:57;;;;;;;3.67;2.17;;;9.30;70.80;;;;;;7552205;23;20286;-70
2023/11/30 07:02:59;;;;;;;5.53;2.45;;;9.30;71.00;;;;;;7552363;23;20081;-69
2023/11/30 07:06:00;;;;;;;2.25;1.73;;;9.30;71.00;;;;;;7526238;23;20107;-70
2023/11/30 07:09:01;;;;;;;5.85;2.63;;;9.30;71.20;;;;;;7525517;23;20445;-70
2023/11/30 07:12:02;;;;;;;3.88;2.90;;;9.30;71.20;;;;;;7502043;23;20019;-68
2023/11/30 07:15:03;;;;;;;3.88;2.05;;;9.30;71.30;;;;;;7553287;23;20085;-70
2023/11/30 07:18:04;;;;;;;5.43;2.60;;;9.40;71.20;;;;;;7502729;23;20102;-69
2023/11/30 07:21:12;;;;;;;2.92;1.80;;;9.40;71.20;;;;;;7526368;23;20426;-70
2023/11/30 07:24:13;;;;;;;3.27;1.90;;;9.50;71.30;;;;;;7551367;23;20065;-69
2023/11/30 07:27:17;;;;;;;4.10;2.22;;;9.50;71.20;;;;;;7524796;23;20007;-69
2023/11/30 07:30:19;;;;;;;6.68;3.15;;;9.60;71.20;;;;;;7524714;23;20010;-70
2023/11/30 07:33:20;;;;;;;4.70;2.88;;;9.50;71.10;;;;;;7503476;23;20014;-69
2023/11/30 07:36:20;;;;;;;3.28;2.30;;;9.60;71.20;;;;;;7528494;23;20408;-70
2023/11/30 07:39:22;;;;;;;6.63;1.92;;;9.60;71.10;;;;;;7528115;23;20552;-70
2023/11/30 07:42:23;;;;;;;5.22;2.50;;;9.60;71.00;;;;;;7552911;23;20045;-71
2023/11/30 07:45:23;;;;;;;3.35;2.00;;;9.70;71.00;;;;;;7528455;23;20014;-70
2023/11/30 07:48:24;;;;;;;3.83;2.58;;;9.70;71.10;;;;;;7528867;23;20544;-68
2023/11/30 07:51:27;;;;;;;12.85;4.78;;;9.70;71.00;;;;;;7554754;23;20002;-69
2023/11/30 07:54:27;;;;;;;4.25;2.67;;;9.70;71.00;;;;;;7554358;23;20010;-69
2023/11/30 07:57:29;;;;;;;3.42;2.53;;;9.70;70.90;;;;;;7528282;23;20113;-70
2023/11/30 08:00:30;;;;;;;4.15;2.50;;;9.70;70.90;;;;;;7554855;23;20006;-69
2023/11/30 08:03:31;;;;;;;2.70;1.77;;;9.70;71.10;;;;;;7554175;23;20003;-70
2023/11/30 08:06:33;;;;;;;8.00;3.33;;;9.70;71.10;;;;;;7554614;23;20038;-70
2023/11/30 08:09:34;;;;;;;4.20;2.08;;;9.80;72.20;;;;;;7527765;23;20093;-69
2023/11/30 08:12:35;;;;;;;4.47;2.58;;;9.80;71.50;;;;;;7554678;23;20014;-69
2023/11/30 08:15:36;;;;;;;6.60;3.45;;;9.80;71.60;;;;;;7528137;23;20029;-70
2023/11/30 08:18:36;;;;;;;5.45;3.40;;;9.80;71.80;;;;;;7554228;23;20013;-71
2023/11/30 08:21:40;;;;;;;4.03;2.58;;;9.90;71.90;;;;;;7504058;23;20033;-71
2023/11/30 08:24:41;;;;;;;6.40;3.65;;;9.90;71.80;;;;;;7553813;23;20094;-70
2023/11/30 08:27:43;;;;;;;4.15;2.45;;;9.90;71.70;;;;;;7554250;23;20097;-70
2023/11/30 08:30:44;;;;;;;4.18;2.92;;;9.90;71.80;;;;;;7528074;23;20315;-71
2023/11/30 08:33:47;;;;;;;5.43;3.08;;;10.00;71.70;;;;;;7553374;23;20109;-69
2023/11/30 08:36:47;;;;;;;5.47;3.47;;;9.90;71.60;;;;;;7554158;23;20093;-70
2023/11/30 08:39:48;;;;;;;10.98;4.13;;;10.00;71.90;;;;;;7503896;23;20390;-69
2023/11/30 08:42:49;;;;;;;10.02;3.00;;;10.00;72.00;;;;;;7527610;23;20021;-68
2023/11/30 08:45:50;;;;;;;4.30;2.97;;;10.00;71.90;;;;;;7554141;23;19994;-69
2023/11/30 08:48:51;;;;;;;5.65;2.92;;;10.10;71.80;;;;;;7553944;23;20116;-70
2023/11/30 08:51:53;;;;;;;8.05;3.45;;;10.10;71.70;;;;;;7554027;23;20014;-71
2023/11/30 08:54:54;;;;;;;10.23;3.78;;;10.10;71.60;;;;;;7527900;23;20020;-70
2023/11/30 08:57:54;;;;;;;5.15;3.30;;;10.10;71.70;;;;;;7553459;23;20014;-70
2023/11/30 09:00:55;;;;;;;6.93;2.65;;;10.20;71.80;;;;;;7480565;23;20015;-69
2023/11/30 09:04:03;;;;;;;4.25;2.42;;;10.10;71.70;;;;;;7527341;23;20011;-71
2023/11/30 09:07:04;;;;;;;6.40;3.55;;;10.20;71.90;;;;;;7553360;23;20528;-69
2023/11/30 09:10:05;;;;;;;6.35;2.65;;;10.20;71.80;;;;;;7552968;23;20085;-70
2023/11/30 09:13:07;;;;;;;6.28;3.42;;;10.20;71.90;;;;;;7527435;23;20052;-69
2023/11/30 09:16:10;;;;;;;5.05;2.88;;;10.30;71.80;;;;;;7553846;23;20086;-70
2023/11/30 09:19:11;;;;;;;12.70;4.95;;;10.30;71.80;;;;;;7553442;23;20623;-69
2023/11/30 09:22:12;;;;;;;9.82;4.43;;;10.40;71.80;;;;;;7553498;23;20007;-70
2023/11/30 09:25:13;;;;;;;9.05;3.97;;;10.40;71.70;;;;;;7528471;23;20190;-70
2023/11/30 09:28:18;;;;;;;7.88;4.30;;;10.40;71.50;;;;;;7527768;23;20013;-70
2023/11/30 09:31:19;;;;;;;8.43;3.88;;;10.40;71.60;;;;;;7503057;23;20014;-70
2023/11/30 09:34:20;;;;;;;12.68;5.80;;;10.50;71.80;;;;;;7527781;23;20346;-69
2023/11/30 09:37:21;;;;;;;5.25;3.10;;;10.50;71.70;;;;;;7552863;23;20097;-69
2023/11/30 09:40:23;;;;;;;4.88;3.22;;;10.50;71.60;;;;;;7553107;23;20006;-71
2023/11/30 09:43:26;;;;;;;5.13;2.97;;;10.60;71.50;;;;;;7527138;23;20006;-69
2023/11/30 09:46:26;;;;;;;6.65;2.30;;;10.70;71.50;;;;;;7526987;23;20018;-70
2023/11/30 09:49:29;;;;;;;4.95;2.30;;;10.80;71.50;;;;;;7552300;23;20105;-69
2023/11/30 09:52:35;;;;;;;9.20;4.75;;;10.90;71.40;;;;;;7527491;23;20034;-70
2023/11/30 09:55:37;;;;;;;13.23;4.68;;;11.10;71.10;;;;;;7552619;23;20049;-69
2023/11/30 09:58:40;;;;;;;5.72;3.10;;;11.20;70.90;;;;;;7552407;23;20071;-70
2023/11/30 10:01:42;;;;;;;4.70;2.72;;;11.30;71.40;;;;;;7526923;23;20013;-70
2023/11/30 10:04:45;;;;;;;13.65;3.70;;;11.40;70.10;;;;;;7528070;23;20445;-70
2023/11/30 10:07:46;;;;;;;6.55;2.90;;;11.40;69.90;;;;;;7526098;23;20041;-69
2023/11/30 10:10:48;;;;;;;4.45;3.17;;;11.40;69.90;;;;;;7551204;23;20029;-70
2023/11/30 10:13:49;;;;;;;8.63;3.53;;;11.40;69.80;;;;;;7527163;23;20014;-70
2023/11/30 10:16:49;;;;;;;4.72;2.85;;;11.50;69.80;;;;;;7526821;23;20397;-71
2023/11/30 10:19:52;;;;;;;6.05;3.35;;;11.50;69.50;;;;;;7525987;23;20021;-70
2023/11/30 10:22:53;;;;;;;6.38;3.85;;;11.60;69.60;;;;;;7501708;23;20403;-70
2023/11/30 10:25:57;;;;;;;12.10;5.60;;;11.60;69.60;;;;;;7526072;23;20018;-71
2023/11/30 10:29:02;;;;;;;10.50;4.72;;;11.80;69.50;;;;;;7552666;23;20497;-70
2023/11/30 10:32:06;;;;;;;11.15;3.20;;;11.90;69.30;;;;;;7552237;23;20019;-71
2023/11/30 10:35:14;;;;;;;8.75;4.40;;;12.00;69.10;;;;;;7552302;23;20120;-70
2023/11/30 10:38:32;;;;;;;6.95;4.25;;;12.00;68.80;;;;;;7553298;23;20021;-72
2023/11/30 10:41:49;;;;;;;5.50;3.40;;;12.00;68.60;;;;;;7552911;23;20054;-72
2023/11/30 10:44:56;;;;;;;6.10;3.72;;;12.00;68.60;;;;;;7550974;23;20101;-70
2023/11/30 10:47:59;;;;;;;7.10;3.70;;;12.00;68.70;;;;;;7527888;23;20022;-70
2023/11/30 10:51:00;;;;;;;9.63;5.35;;;12.00;68.50;;;;;;7552643;23;20080;-70
2023/11/30 10:54:12;;;;;;;10.50;4.65;;;12.00;68.60;;;;;;7551502;23;20006;-71
2023/11/30 10:57:13;;;;;;;6.45;3.03;;;12.10;68.70;;;;;;7527366;23;20603;-69
2023/11/30 11:00:16;;;;;;;5.78;4.13;;;12.00;68.70;;;;;;7526877;23;20066;-70
2023/11/30 11:03:17;;;;;;;10.80;3.95;;;12.10;68.70;;;;;;7552393;23;20390;-71
2023/11/30 11:06:24;;;;;;;9.43;5.07;;;12.10;68.70;;;;;;7552870;23;20018;-70
2023/11/30 11:09:25;;;;;;;9.05;4.53;;;12.20;68.80;;;;;;7528961;23;20014;-70
2023/11/30 11:12:33;;;;;;;13.82;5.35;;;12.20;68.70;;;;;;7528589;23;20021;-72
2023/11/30 11:15:34;;;;;;;24.95;5.45;;;12.20;68.70;;;;;;7553565;23;20066;-70
2023/11/30 11:18:41;;;;;;;13.60;5.40;;;12.30;68.70;;;;;;7530611;23;20389;-70
2023/11/30 11:21:43;;;;;;;12.18;4.20;;;12.40;68.50;;;;;;7554548;23;20476;-70
2023/11/30 11:24:46;;;;;;;11.00;4.82;;;12.40;68.50;;;;;;7553899;23;20530;-72
2023/11/30 11:27:48;;;;;;;10.60;4.70;;;12.40;68.20;;;;;;7554517;23;20152;-70
2023/11/30 11:30:50;;;;;;;10.18;4.75;;;12.40;68.20;;;;;;7528568;23;20006;-70
2023/11/30 11:33:52;;;;;;;14.20;5.50;;;12.40;68.20;;;;;;7553857;23;20089;-68
2023/11/30 11:36:53;;;;;;;10.85;4.25;;;12.40;68.20;;;;;;7527970;23;20066;-68
2023/11/30 11:39:56;;;;;;;10.07;5.03;;;12.50;68.20;;;;;;7554057;23;20018;-70
2023/11/30 11:42:57;;;;;;;6.53;4.43;;;12.50;68.20;;;;;;7554775;23;20097;-68
2023/11/30 11:45:57;;;;;;;7.15;4.05;;;12.50;68.10;;;;;;7554431;23;20081;-67
2023/11/30 11:48:59;;;;;;;6.47;4.38;;;12.50;68.10;;;;;;7528061;23;20665;-69
2023/11/30 11:52:01;;;;;;;6.90;4.30;;;12.40;68.80;;;;;;7530075;23;20026;-69
2023/11/30 11:55:05;;;;;;;17.70;5.10;;;12.50;68.20;;;;;;7554367;23;20015;-69
2023/11/30 11:58:08;;;;;;;14.75;4.93;;;12.50;68.20;;;;;;7551578;23;20029;-68
2023/11/30 12:01:11;;;;;;;11.68;4.85;;;12.50;68.20;;;;;;7553466;23;20029;-68
2023/11/30 12:04:11;;;;;;;5.78;3.70;;;12.50;68.20;;;;;;7527572;23;20010;-69
2023/11/30 12:07:15;;;;;;;10.77;5.03;;;12.60;68.20;;;;;;7553486;23;20382;-69
2023/11/30 12:10:40;;;;;;;10.82;5.50;;;12.60;68.20;;;;;;7552801;23;20026;-68
2023/11/30 12:13:41;;;;;;;11.02;5.00;;;12.60;68.20;;;;;;7553731;23;20013;-68
2023/11/30 12:16:42;;;;;;;8.45;4.97;;;12.60;68.20;;;;;;7552883;23;20010;-68
2023/11/30 12:19:43;;;;;;;9.70;5.25;;;12.70;68.30;;;;;;7553325;23;19999;-68
2023/11/30 12:22:45;;;;;;;11.93;3.88;;;12.70;68.30;;;;;;7528286;23;20047;-67
2023/11/30 12:25:45;;;;;;;9.30;4.88;;;12.70;68.30;;;;;;7552635;23;20017;-68
2023/11/30 12:28:47;;;;;;;12.23;4.43;;;12.80;68.10;;;;;;7503627;23;20052;-66
2023/11/30 12:31:47;;;;;;;9.88;4.68;;;12.80;68.20;;;;;;7553757;23;20045;-67
2023/11/30 12:34:48;;;;;;;7.32;3.85;;;12.80;68.10;;;;;;7553257;23;20432;-69
2023/11/30 12:37:49;;;;;;;9.82;4.85;;;12.80;68.10;;;;;;7503146;23;20116;-68
2023/11/30 12:40:50;;;;;;;10.45;4.40;;;12.80;68.20;;;;;;7551336;23;20021;-69
2023/11/30 12:43:51;;;;;;;9.07;4.30;;;12.80;68.30;;;;;;7527156;23;20084;-69
2023/11/30 12:46:52;;;;;;;9.85;4.93;;;12.80;68.20;;;;;;7526734;23;20010;-68
2023/11/30 12:49:52;;;;;;;14.50;5.03;;;12.80;68.30;;;;;;7553221;23;20357;-66
2023/11/30 12:52:55;;;;;;;9.90;5.03;;;12.80;68.20;;;;;;7502666;23;20032;-68
2023/11/30 12:55:56;;;;;;;5.97;4.05;;;12.80;68.20;;;;;;7552070;23;20030;-67
2023/11/30 12:58:57;;;;;;;12.45;4.55;;;12.80;68.30;;;;;;7551784;23;20402;-67
2023/11/30 13:01:57;;;;;;;8.32;4.40;;;12.70;68.30;;;;;;7552741;23;20054;-68
2023/11/30 13:04:58;;;;;;;8.05;3.17;;;12.70;68.50;;;;;;7527028;23;20298;-68
2023/11/30 13:07:59;;;;;;;8.23;4.60;;;12.60;68.50;;;;;;7527338;23;20002;-68
2023/11/30 13:11:00;;;;;;;11.50;5.30;;;12.60;68.70;;;;;;7552579;23;20006;-70
2023/11/30 13:14:02;;;;;;;10.95;5.20;;;12.60;68.80;;;;;;7553514;23;20690;-67
2023/11/30 13:17:04;;;;;;;8.25;4.65;;;12.60;68.80;;;;;;7552810;23;20010;-67
2023/11/30 13:20:09;;;;;;;6.70;3.50;;;12.60;68.90;;;;;;7553100;23;20014;-67
2023/11/30 13:23:10;;;;;;;13.30;4.10;;;12.60;68.90;;;;;;7552696;23;20014;-68
2023/11/30 13:26:12;;;;;;;10.80;4.60;;;12.60;68.90;;;;;;7552108;23;20006;-69
2023/11/30 13:29:13;;;;;;;11.27;4.65;;;12.60;69.00;;;;;;7552628;23;20007;-68
2023/11/30 13:32:16;;;;;;;11.10;4.60;;;12.60;69.10;;;;;;7553797;23;20026;-67
2023/11/30 13:35:17;;;;;;;15.50;4.28;;;12.70;69.10;;;;;;7503891;23;20110;-67
2023/11/30 13:38:17;;;;;;;10.38;3.97;;;12.50;69.00;;;;;;7553867;23;20417;-68
2023/11/30 13:41:19;;;;;;;10.10;4.68;;;12.70;69.20;;;;;;7526287;23;20472;-69
2023/11/30 13:44:20;;;;;;;12.07;4.80;;;12.70;69.20;;;;;;7552539;23;20085;-70
2023/11/30 13:47:21;;;;;;;8.88;4.40;;;12.60;69.20;;;;;;7526574;23;20481;-67
2023/11/30 13:50:23;;;;;;;8.50;3.95;;;12.60;69.50;;;;;;7479610;23;20556;-68
2023/11/30 13:53:26;;;;;;;12.65;4.97;;;12.60;69.60;;;;;;7527216;23;20025;-68
2023/11/30 13:56:27;;;;;;;8.10;4.40;;;12.70;69.70;;;;;;7553097;23;20090;-68
2023/11/30 13:59:28;;;;;;;10.02;5.60;;;12.70;69.70;;;;;;7552197;23;20014;-68
2023/11/30 14:02:29;;;;;;;9.30;4.85;;;12.80;69.60;;;;;;7552859;23;20016;-69
2023/11/30 14:05:32;;;;;;;6.07;3.70;;;12.90;69.40;;;;;;7527380;23;20401;-67
2023/11/30 14:08:33;;;;;;;11.70;4.78;;;12.90;69.40;;;;;;7553505;23;20496;-67
2023/11/30 14:11:35;;;;;;;9.43;4.90;;;13.00;69.40;;;;;;7552909;23;20010;-67
2023/11/30 14:14:36;;;;;;;9.38;4.80;;;13.00;69.20;;;;;;7526255;23;20074;-69
2023/11/30 14:17:38;;;;;;;11.65;4.82;;;13.00;69.20;;;;;;7526309;23;20065;-67
2023/11/30 14:20:39;;;;;;;13.07;6.05;;;13.10;69.30;;;;;;7552058;23;20065;-69
2023/11/30 14:23:40;;;;;;;11.32;4.38;;;13.00;69.20;;;;;;7551667;23;20028;-68
2023/11/30 14:26:41;;;;;;;13.25;5.55;;;13.00;69.20;;;;;;7526773;23;20002;-68
2023/11/30 14:29:42;;;;;;;9.23;4.30;;;12.90;69.20;;;;;;7527414;23;20077;-69
2023/11/30 14:32:43;;;;;;;9.07;5.18;;;12.90;69.30;;;;;;7552506;23;20006;-68
2023/11/30 14:35:44;;;;;;;10.25;4.60;;;13.00;69.50;;;;;;7551973;23;20067;-70
2023/11/30 14:38:44;;;;;;;7.15;3.95;;;12.90;69.30;;;;;;7502489;23;20011;-69
2023/11/30 14:41:45;;;;;;;10.32;5.28;;;13.00;69.40;;;;;;7527542;23;20030;-68
2023/11/30 14:44:47;;;;;;;7.82;3.85;;;12.90;69.40;;;;;;7555199;23;20085;-69
2023/11/30 14:47:48;;;;;;;13.30;6.22;;;12.90;69.60;;;;;;7552305;23;20029;-69
2023/11/30 14:50:49;;;;;;;8.80;4.90;;;13.00;69.70;;;;;;7554993;23;20003;-69
2023/11/30 14:53:50;;;;;;;9.13;4.10;;;13.00;69.60;;;;;;7555150;23;20014;-69
2023/11/30 14:56:51;;;;;;;14.85;4.82;;;13.00;70.30;;;;;;7530271;23;20014;-68
2023/11/30 14:59:51;;;;;;;8.30;3.90;;;13.00;69.40;;;;;;7554920;23;20441;-69
2023/11/30 15:02:52;;;;;;;7.22;3.90;;;13.00;69.40;;;;;;7528087;23;20585;-69
2023/11/30 15:05:53;;;;;;;12.30;5.75;;;13.00;69.30;;;;;;7554889;23;20010;-69
2023/11/30 15:08:54;;;;;;;12.00;4.95;;;13.00;69.40;;;;;;7529065;23;20021;-68
2023/11/30 15:11:57;;;;;;;9.95;5.47;;;13.00;69.50;;;;;;7554470;23;20010;-68
2023/11/30 15:14:58;;;;;;;10.40;5.03;;;13.00;69.60;;;;;;7554367;23;20030;-69
2023/11/30 15:17:59;;;;;;;11.88;6.15;;;13.00;69.50;;;;;;7555099;23;20315;-68
2023/11/30 15:21:00;;;;;;;17.92;5.35;;;13.00;69.60;;;;;;7528381;23;20018;-69
2023/11/30 15:24:02;;;;;;;11.90;5.38;;;12.90;69.70;;;;;;7554724;23;20041;-68
2023/11/30 15:27:03;;;;;;;16.10;5.18;;;12.90;69.90;;;;;;7527790;23;20051;-70
2023/11/30 15:30:06;;;;;;;8.07;4.63;;;12.80;69.90;;;;;;7554403;23;20014;-69
2023/11/30 15:33:07;;;;;;;18.17;5.32;;;12.90;70.00;;;;;;7554098;23;20015;-69
2023/11/30 15:36:09;;;;;;;11.52;5.35;;;12.90;70.00;;;;;;7553722;23;20524;-69
2023/11/30 15:39:15;;;;;;;18.58;6.45;;;12.90;70.10;;;;;;7554013;23;20030;-69
2023/11/30 15:42:16;;;;;;;9.48;4.97;;;12.80;70.20;;;;;;7527601;23;20014;-68
2023/11/30 15:45:19;;;;;;;9.18;4.78;;;12.70;70.40;;;;;;7528347;23;20077;-69
2023/11/30 15:48:21;;;;;;;10.50;5.60;;;12.70;70.60;;;;;;7554759;23;20002;-68